$GPRMC,235959,A,4810.8964,N,00824.8264,E,000.0,259.9,081007,,,A*7B $GPRMC,235959,A,4810.9071,N,00824.8134,E,000.0,298.6,081007,,,A*77 $GPRMC,235959,A,4810.9109,N,00824.7958,E,004.3,256.9,081007,,,A*7F $GPRMC,235959,A,4810.9141,N,00824.7736,E,003.4,246.7,081007,,,A*7C $GPRMC,235959,A,4810.9356,N,00824.7237,E,002.8,276.1,081007,,,A*79 $GPRMC,235959,A,4810.9635,N,00824.6489,E,005.2,236.4,081007,,,A*73 $GPRMC,235959,A,4810.9654,N,00824.6447,E,000.0,236.4,081007,,,A*70 $GPRMC,235959,A,4810.9671,N,00824.6408,E,000.0,236.4,081007,,,A*7A $GPRMC,235959,A,4810.9709,N,00824.6319,E,000.0,273.5,081007,,,A*71 $GPRMC,235959,A,4810.9848,N,00824.6014,E,004.2,332.9,081007,,,A*7F $GPRMC,235959,A,4810.9940,N,00824.5796,E,000.0,264.8,081007,,,A*7C $GPRMC,235959,A,4811.0053,N,00824.5389,E,003.0,276.9,081007,,,A*72 $GPRMC,235959,A,4811.0168,N,00824.5029,E,003.7,251.3,081007,,,A*7A $GPRMC,235959,A,4811.0236,N,00824.4800,E,001.5,252.6,081007,,,A*72 $GPRMC,235959,A,4811.0252,N,00824.4524,E,003.8,197.2,081007,,,A*7B $GPRMC,235959,A,4811.0407,N,00824.3558,E,003.3,240.0,081007,,,A*77 $GPRMC,235959,A,4811.0557,N,00824.3244,E,004.2,350.5,081007,,,A*78 $GPRMC,235959,A,4811.0616,N,00824.3125,E,001.1,326.4,081007,,,A*78 $GPRMC,235959,A,4811.0966,N,00824.1804,E,002.6,281.7,081007,,,A*70 $GPRMC,235959,A,4811.1055,N,00824.1586,E,003.3,328.7,081007,,,A*7D $GPRMC,235959,A,4811.1141,N,00824.1398,E,003.4,286.0,081007,,,A*74 $GPRMC,235959,A,4811.1067,N,00824.1236,E,003.2,236.6,081007,,,A*79 $GPRMC,235959,A,4811.1132,N,00824.1111,E,002.7,324.3,081007,,,A*7F $GPRMC,235959,A,4811.1392,N,00824.1003,E,002.1,329.0,081007,,,A*79 $GPRMC,235959,A,4811.1516,N,00824.0942,E,003.1,352.2,081007,,,A*71 $GPRMC,235959,A,4811.1465,N,00824.0768,E,002.6,222.0,081007,,,A*71 $GPRMC,235959,A,4811.1650,N,00824.0689,E,003.7,345.1,081007,,,A*7F $GPRMC,235959,A,4811.1568,N,00824.0641,E,001.3,181.4,081007,,,A*7C $GPRMC,235959,A,4811.1514,N,00824.0689,E,003.4,181.3,081007,,,A*70 $GPRMC,235959,A,4811.1690,N,00824.0600,E,005.1,223.1,081007,,,A*77 $GPRMC,235959,A,4811.1708,N,00824.0540,E,002.4,008.0,081007,,,A*7D $GPRMC,235959,A,4811.1694,N,00824.0518,E,000.9,008.0,081007,,,A*7D $GPRMC,235959,A,4811.1647,N,00824.0226,E,003.3,223.0,081007,,,A*7A $GPRMC,235959,A,4811.1533,N,00824.0022,E,002.2,222.8,081007,,,A*78 $GPRMC,235959,A,4811.1546,N,00823.9869,E,004.0,237.6,081007,,,A*78 $GPRMC,235959,A,4811.1573,N,00823.9740,E,002.9,304.0,081007,,,A*74 $GPRMC,235959,A,4811.1655,N,00823.9699,E,001.3,355.8,081007,,,A*72 $GPRMC,235959,A,4811.1903,N,00823.9706,E,010.7,353.3,081007,,,A*73 $GPRMC,235959,A,4811.1871,N,00823.9568,E,002.6,328.9,081007,,,A*7C $GPRMC,235959,A,4811.2024,N,00823.9582,E,004.9,352.4,081007,,,A*7C $GPRMC,235959,A,4811.2040,N,00823.9517,E,001.5,225.3,081007,,,A*7C $GPRMC,235959,A,4811.2198,N,00823.9609,E,007.3,004.2,081007,,,A*7E $GPRMC,235959,A,4811.2235,N,00823.9537,E,003.7,335.3,081007,,,A*71 $GPRMC,235959,A,4811.2279,N,00823.9410,E,003.3,326.9,081007,,,A*77 $GPRMC,235959,A,4811.2368,N,00823.9333,E,003.4,326.9,081007,,,A*76 $GPRMC,235959,A,4811.2535,N,00823.9345,E,003.7,343.8,081007,,,A*7B $GPRMC,235959,A,4811.2646,N,00823.9286,E,002.4,352.5,081007,,,A*78 $GPRMC,235959,A,4811.2783,N,00823.9262,E,003.0,356.9,081007,,,A*71 $GPRMC,235959,A,4811.2917,N,00823.9211,E,002.5,351.1,081007,,,A*7C $GPRMC,235959,A,4811.3051,N,00823.9157,E,003.3,356.8,081007,,,A*7F $GPRMC,235959,A,4811.3187,N,00823.9085,E,004.1,353.2,081007,,,A*74 $GPRMC,235959,A,4811.3295,N,00823.9055,E,002.6,341.5,081007,,,A*7A $GPRMC,235959,A,4811.3416,N,00823.9014,E,002.9,356.4,081007,,,A*7B $GPRMC,235959,A,4811.3547,N,00823.8974,E,001.5,358.6,081007,,,A*70 $GPRMC,235959,A,4811.3651,N,00823.8902,E,004.1,352.5,081007,,,A*78 $GPRMC,235959,A,4811.3773,N,00823.8815,E,003.1,338.4,081007,,,A*72 $GPRMC,235959,A,4811.3744,N,00823.8794,E,000.4,310.6,081007,,,A*7F $GPRMC,235959,A,4811.3689,N,00823.8709,E,004.8,351.0,081007,,,A*75 $GPRMC,235959,A,4811.3852,N,00823.8697,E,003.0,000.7,081007,,,A*71 $GPRMC,235959,A,4811.3985,N,00823.8605,E,003.9,350.9,081007,,,A*76 $GPRMC,235959,A,4811.4097,N,00823.8484,E,004.1,343.1,081007,,,A*74 $GPRMC,235959,A,4811.4288,N,00823.8420,E,004.4,325.6,081007,,,A*77 $GPRMC,235959,A,4811.4407,N,00823.8306,E,003.9,321.3,081007,,,A*7B $GPRMC,235959,A,4811.4498,N,00823.8148,E,002.9,319.7,081007,,,A*7D $GPRMC,235959,A,4811.4670,N,00823.8188,E,000.8,233.3,081007,,,A*7D $GPRMC,235959,A,4811.4552,N,00823.8224,E,007.4,086.0,081007,,,A*7B $GPRMC,235959,A,4811.4511,N,00823.8283,E,004.7,173.3,081007,,,A*78 $GPRMC,235959,A,4811.4604,N,00823.8557,E,002.7,073.1,081007,,,A*72 $GPRMC,235959,A,4811.4553,N,00823.8732,E,003.3,118.4,081007,,,A*7C $GPRMC,235959,A,4811.4557,N,00823.8879,E,000.9,118.4,081007,,,A*75 $GPRMC,235959,A,4811.4670,N,00823.8833,E,002.6,331.8,081007,,,A*73 $GPRMC,235959,A,4811.4660,N,00823.8643,E,003.4,250.1,081007,,,A*7B $GPRMC,235959,A,4811.4661,N,00823.8491,E,000.8,270.0,081007,,,A*7D $GPRMC,235959,A,4811.4671,N,00823.8463,E,001.4,270.0,081007,,,A*79 $GPRMC,235959,A,4811.4635,N,00823.8260,E,002.7,260.5,081007,,,A*78 $GPRMC,235959,A,4811.4634,N,00823.7986,E,000.0,012.2,081007,,,A*71 $GPRMC,235959,A,4811.4756,N,00823.7999,E,002.1,038.7,081007,,,A*72 $GPRMC,235959,A,4811.4988,N,00823.8033,E,001.9,017.1,081007,,,A*72 $GPRMC,235959,A,4811.5257,N,00823.7992,E,002.4,082.7,081007,,,A*77 $GPRMC,235959,A,4811.5257,N,00823.7881,E,000.0,052.7,081007,,,A*7C $GPRMC,235959,A,4811.5490,N,00823.7826,E,003.4,330.9,081007,,,A*77 $GPRMC,235959,A,4811.5549,N,00823.7665,E,004.1,321.8,081007,,,A*7E $GPRMC,235959,A,4811.5739,N,00823.7608,E,003.4,330.1,081007,,,A*7D $GPRMC,235959,A,4811.5903,N,00823.7415,E,001.5,327.1,081007,,,A*72 $GPRMC,235959,A,4811.6295,N,00823.7925,E,001.7,000.0,081007,,,A*78 $GPRMC,235959,A,4811.6389,N,00823.8002,E,001.0,029.3,081007,,,A*7D $GPRMC,235959,A,4811.6331,N,00823.7960,E,000.0,029.3,081007,,,A*78 $GPRMC,235959,A,4811.6334,N,00823.7819,E,000.0,000.0,081007,,,A*7A $GPRMC,235959,A,4811.6411,N,00823.7921,E,000.0,000.0,081007,,,A*72 $GPRMC,235959,A,4811.6849,N,00823.8081,E,002.9,304.7,081007,,,A*70 $GPRMC,235959,A,4811.6980,N,00823.8123,E,003.0,017.1,081007,,,A*73 $GPRMC,235959,A,4811.7127,N,00823.8139,E,002.2,004.7,081007,,,A*7D $GPRMC,235959,A,4811.7268,N,00823.8141,E,004.1,359.2,081007,,,A*71 $GPRMC,235959,A,4811.7332,N,00823.8121,E,002.0,340.9,081007,,,A*79 $GPRMC,235959,A,4811.7424,N,00823.8143,E,002.6,358.9,081007,,,A*73 $GPRMC,235959,A,4811.7530,N,00823.8309,E,002.4,058.0,081007,,,A*75 $GPRMC,235959,A,4811.7450,N,00823.8018,E,002.2,341.3,081007,,,A*7D $GPRMC,235959,A,4811.7542,N,00823.8155,E,003.0,069.3,081007,,,A*79 $GPRMC,235959,A,4811.7569,N,00823.8393,E,002.7,134.4,081007,,,A*71 $GPRMC,235959,A,4811.7612,N,00823.8588,E,004.6,141.5,081007,,,A*70 $GPRMC,235959,A,4811.7540,N,00823.8685,E,001.5,128.7,081007,,,A*7D $GPRMC,235959,A,4811.7646,N,00823.8798,E,002.3,112.5,081007,,,A*7E $GPRMC,235959,A,4811.7428,N,00823.8842,E,001.0,030.0,081007,,,A*79 $GPRMC,235959,A,4811.7463,N,00823.8878,E,000.0,030.0,081007,,,A*7D $GPRMC,235959,A,4811.7546,N,00823.8723,E,004.4,331.5,081007,,,A*78 $GPRMC,235959,A,4811.7592,N,00823.8570,E,003.0,331.5,081007,,,A*70 $GPRMC,235959,A,4811.7766,N,00823.8472,E,003.2,351.5,081007,,,A*7F $GPRMC,235959,A,4811.7953,N,00823.8414,E,003.7,351.5,081007,,,A*7E $GPRMC,235959,A,4811.8104,N,00823.8413,E,004.4,354.6,081007,,,A*7A $GPRMC,235959,A,4811.8189,N,00823.8396,E,003.1,325.7,081007,,,A*71 $GPRMC,235959,A,4811.8260,N,00823.8371,E,000.2,355.6,081007,,,A*7C $GPRMC,235959,A,4811.8288,N,00823.8358,E,003.0,335.9,081007,,,A*7B $GPRMC,235959,A,4811.8220,N,00823.8257,E,004.0,178.3,081007,,,A*73 $GPRMC,235959,A,4811.8398,N,00823.8243,E,003.1,336.8,081007,,,A*71 $GPRMC,235959,A,4811.8478,N,00823.8173,E,001.1,343.2,081007,,,A*72 $GPRMC,235959,A,4811.8634,N,00823.8044,E,003.1,344.7,081007,,,A*7B $GPRMC,235959,A,4811.8781,N,00823.8049,E,003.4,352.2,081007,,,A*7B $GPRMC,235959,A,4811.8911,N,00823.7991,E,002.5,315.2,081007,,,A*7C $GPRMC,235959,A,4811.9056,N,00823.7930,E,003.5,339.8,081007,,,A*7B $GPRMC,235959,A,4811.9138,N,00823.7859,E,005.5,009.1,081007,,,A*75 $GPRMC,235959,A,4811.9260,N,00823.7858,E,002.9,347.1,081007,,,A*7D $GPRMC,235959,A,4811.9291,N,00823.7842,E,001.8,328.9,081007,,,A*7B $GPRMC,235959,A,4811.9418,N,00823.7808,E,002.4,026.6,081007,,,A*7B $GPRMC,235959,A,4811.9556,N,00823.7737,E,004.0,347.0,081007,,,A*75 $GPRMC,235959,A,4811.9549,N,00823.7840,E,001.8,108.5,081007,,,A*70 $GPRMC,235959,A,4811.9595,N,00823.7922,E,001.5,096.3,081007,,,A*79 $GPRMC,235959,A,4811.9720,N,00823.8064,E,000.6,029.4,081007,,,A*72 $GPRMC,235959,A,4811.9699,N,00823.8069,E,000.4,029.4,081007,,,A*78 $GPRMC,235959,A,4811.9711,N,00823.8041,E,000.4,027.9,081007,,,A*75 $GPRMC,235959,A,4811.9732,N,00823.8036,E,000.8,027.9,081007,,,A*78 $GPRMC,235959,A,4811.9712,N,00823.8186,E,002.6,074.7,081007,,,A*74 $GPRMC,235959,A,4811.9938,N,00823.8645,E,002.9,075.8,081007,,,A*78 $GPRMC,235959,A,4811.9884,N,00823.8755,E,001.8,338.1,081007,,,A*7F $GPRMC,235959,A,4811.9805,N,00823.8839,E,003.8,353.5,081007,,,A*7D $GPRMC,235959,A,4811.9827,N,00823.9094,E,002.6,135.9,081007,,,A*77 $GPRMC,235959,A,4811.9844,N,00823.9370,E,002.6,120.3,081007,,,A*73 $GPRMC,235959,A,4811.9854,N,00823.9561,E,003.3,061.0,081007,,,A*76 $GPRMC,235959,A,4811.9771,N,00823.9680,E,006.2,158.3,081007,,,A*73 $GPRMC,235959,A,4811.9854,N,00823.9934,E,001.7,000.0,081007,,,A*75 $GPRMC,235959,A,4811.9392,N,00823.9972,E,000.0,166.6,081007,,,A*71 $GPRMC,235959,A,4811.9228,N,00823.9900,E,003.3,114.2,081007,,,A*70 $GPRMC,235959,A,4811.8917,N,00824.0479,E,000.0,174.4,081007,,,A*72 $GPRMC,235959,A,4811.8708,N,00824.0370,E,003.8,174.4,081007,,,A*74 $GPRMC,235959,A,4811.8952,N,00824.0881,E,000.0,000.0,081007,,,A*7F $GPRMC,235959,A,4811.8684,N,00824.1164,E,000.0,121.4,081007,,,A*7C $GPRMC,235959,A,4811.8433,N,00824.2010,E,001.9,129.3,081007,,,A*71 $GPRMC,235959,A,4811.7858,N,00824.1455,E,003.6,063.1,081007,,,A*7E $GPRMC,235959,A,4811.7966,N,00824.1620,E,005.4,123.4,081007,,,A*70 $GPRMC,235959,A,4811.8123,N,00824.1742,E,003.6,069.0,081007,,,A*79 $GPRMC,235959,A,4811.8153,N,00824.1855,E,003.3,056.1,081007,,,A*7F $GPRMC,235959,A,4811.8268,N,00824.1845,E,002.4,355.0,081007,,,A*70 $GPRMC,235959,A,4811.8513,N,00824.1845,E,005.8,347.6,081007,,,A*73 $GPRMC,235959,A,4811.8617,N,00824.1808,E,003.4,007.7,081007,,,A*74 $GPRMC,235959,A,4811.8598,N,00824.2073,E,004.7,000.0,081007,,,A*74 $GPRMC,235959,A,4811.8388,N,00824.2179,E,000.9,097.4,081007,,,A*7A $GPRMC,235959,A,4811.8075,N,00824.2030,E,002.3,172.8,081007,,,A*7A $GPRMC,235959,A,4811.8179,N,00824.2212,E,002.3,021.5,081007,,,A*7D $GPRMC,235959,A,4811.8011,N,00824.2243,E,000.0,152.9,081007,,,A*7F $GPRMC,235959,A,4811.8100,N,00824.2376,E,000.0,152.9,081007,,,A*7F $GPRMC,235959,A,4811.7945,N,00824.2380,E,000.0,152.9,081007,,,A*7C $GPRMC,235959,A,4811.7640,N,00824.2325,E,003.7,133.6,081007,,,A*71 $GPRMC,235959,A,4811.7673,N,00824.2377,E,002.9,162.7,081007,,,A*7D $GPRMC,235959,A,4811.7769,N,00824.2832,E,001.7,000.0,081007,,,A*74 $GPRMC,235959,A,4811.7601,N,00824.2619,E,001.9,105.2,081007,,,A*76 $GPRMC,235959,A,4811.7604,N,00824.3005,E,000.0,105.2,081007,,,A*73 $GPRMC,235959,A,4811.7587,N,00824.2923,E,015.5,156.6,081007,,,A*72 $GPRMC,235959,A,4811.7413,N,00824.2915,E,003.0,153.0,081007,,,A*70 $GPRMC,235959,A,4811.7329,N,00824.3089,E,000.7,132.1,081007,,,A*74 $GPRMC,235959,A,4811.7398,N,00824.3049,E,003.0,006.9,081007,,,A*7E $GPRMC,235959,A,4811.7510,N,00824.3072,E,001.7,017.5,081007,,,A*78 $GPRMC,235959,A,4811.7467,N,00824.3164,E,003.1,085.3,081007,,,A*75 $GPRMC,235959,A,4811.7976,N,00824.3388,E,003.2,000.0,081007,,,A*76 $GPRMC,235959,A,4811.7657,N,00824.3240,E,000.0,062.1,081007,,,A*7A $GPRMC,235959,A,4811.7647,N,00824.3246,E,000.0,062.1,081007,,,A*7C $GPRMC,235959,A,4811.7662,N,00824.3177,E,003.5,338.4,081007,,,A*70 $GPRMC,235959,A,4811.7820,N,00824.3194,E,002.2,354.8,081007,,,A*74 $GPRMC,235959,A,4811.7870,N,00824.3228,E,000.0,007.3,081007,,,A*79 $GPRMC,235959,A,4811.8092,N,00824.3336,E,002.8,011.5,081007,,,A*71 $GPRMC,235959,A,4811.8155,N,00824.3253,E,002.9,331.3,081007,,,A*7A $GPRMC,235959,A,4811.8130,N,00824.3336,E,003.2,035.2,081007,,,A*71 $GPRMC,235959,A,4811.8156,N,00824.3375,E,001.1,055.6,081007,,,A*70 $GPRMC,235959,A,4811.8262,N,00824.3411,E,004.2,103.3,081007,,,A*72 $GPRMC,235959,A,4811.8400,N,00824.3360,E,002.0,357.9,081007,,,A*7A $GPRMC,235959,A,4811.8544,N,00824.3616,E,004.9,326.2,081007,,,A*7E $GPRMC,235959,A,4811.8643,N,00824.3454,E,002.2,044.9,081007,,,A*7B $GPRMC,235959,A,4811.8737,N,00824.3566,E,001.0,025.4,081007,,,A*74 $GPRMC,235959,A,4811.8820,N,00824.3705,E,004.7,048.4,081007,,,A*73 $GPRMC,235959,A,4811.8946,N,00824.3707,E,002.4,353.3,081007,,,A*7D $GPRMC,235959,A,4811.9100,N,00824.3708,E,005.1,351.2,081007,,,A*7D $GPRMC,235959,A,4811.9215,N,00824.3828,E,002.1,008.1,081007,,,A*7C $GPRMC,235959,A,4811.9267,N,00824.3996,E,002.4,022.0,081007,,,A*74 $GPRMC,235959,A,4811.9140,N,00824.4006,E,002.4,038.4,081007,,,A*7F $GPRMC,235959,A,4811.9154,N,00824.4289,E,001.9,000.0,081007,,,A*78 $GPRMC,235959,A,4811.9339,N,00824.4454,E,000.0,070.2,081007,,,A*73 $GPRMC,235959,A,4811.9375,N,00824.4576,E,000.0,070.2,081007,,,A*7C $GPRMC,235959,A,4811.9439,N,00824.4781,E,001.3,044.7,081007,,,A*78 $GPRMC,235959,A,4811.9529,N,00824.4970,E,002.0,036.0,081007,,,A*79 $GPRMC,235959,A,4811.9467,N,00824.5144,E,002.0,099.2,081007,,,A*7E $GPRMC,235959,A,4811.9457,N,00824.5151,E,000.5,063.6,081007,,,A*79 $GPRMC,235959,A,4811.9581,N,00824.5227,E,002.4,358.6,081007,,,A*78 $GPRMC,235959,A,4811.9648,N,00824.5356,E,002.7,030.7,081007,,,A*7A $GPRMC,235959,A,4811.9714,N,00824.5467,E,003.6,087.7,081007,,,A*79 $GPRMC,235959,A,4811.9770,N,00824.5621,E,003.2,041.4,081007,,,A*77 $GPRMC,235959,A,4811.9846,N,00824.5792,E,004.7,113.5,081007,,,A*74 $GPRMC,235959,A,4812.0012,N,00824.5913,E,000.5,008.5,081007,,,A*7B $GPRMC,235959,A,4811.9903,N,00824.5960,E,000.5,049.6,081007,,,A*7F $GPRMC,235959,A,4811.9901,N,00824.5949,E,001.2,049.6,081007,,,A*70 $GPRMC,235959,A,4811.9946,N,00824.5933,E,000.5,347.1,081007,,,A*72 $GPRMC,235959,A,4812.0002,N,00824.5885,E,002.4,339.2,081007,,,A*76 $GPRMC,235959,A,4812.0054,N,00824.5931,E,000.3,339.2,081007,,,A*78 $GPRMC,235959,A,4811.9969,N,00824.5974,E,000.1,344.3,081007,,,A*7C $GPRMC,235959,A,4811.9982,N,00824.5987,E,000.3,344.3,081007,,,A*74 $GPRMC,235959,A,4811.9865,N,00824.6037,E,001.2,136.7,081007,,,A*7C $GPRMC,235959,A,4811.9885,N,00824.6191,E,001.5,054.4,081007,,,A*7F $GPRMC,235959,A,4812.0019,N,00824.6168,E,001.2,319.4,081007,,,A*77 $GPRMC,235959,A,4811.9829,N,00824.6672,E,002.9,100.1,081007,,,A*79 $GPRMC,235959,A,4811.9914,N,00824.6475,E,001.6,139.7,081007,,,A*73 $GPRMC,235959,A,4811.9813,N,00824.6479,E,001.5,164.2,081007,,,A*75 $GPRMC,235959,A,4811.9738,N,00824.6443,E,002.4,191.5,081007,,,A*73 $GPRMC,235959,A,4811.9650,N,00824.6344,E,003.9,206.7,081007,,,A*7A $GPRMC,235959,A,4811.9507,N,00824.6349,E,001.9,203.6,081007,,,A*70 $GPRMC,235959,A,4811.9530,N,00824.6361,E,001.8,203.6,081007,,,A*7F $GPRMC,235959,A,4811.9513,N,00824.6323,E,002.3,202.3,081007,,,A*72 $GPRMC,235959,A,4811.9371,N,00824.6378,E,003.1,140.8,081007,,,A*76 $GPRMC,235959,A,4811.9226,N,00824.6371,E,003.7,200.2,081007,,,A*77 $GPRMC,235959,A,4811.8878,N,00824.6425,E,002.9,199.3,081007,,,A*79 $GPRMC,235959,A,4811.8893,N,00824.6383,E,000.0,199.3,081007,,,A*79 $GPRMC,235959,A,4811.8855,N,00824.6361,E,000.0,199.3,081007,,,A*79 $GPRMC,235959,A,4811.8721,N,00824.6481,E,006.9,158.2,081007,,,A*74 $GPRMC,235959,A,4811.8682,N,00824.6431,E,000.0,176.2,081007,,,A*72 $GPRMC,235959,A,4811.8497,N,00824.6559,E,003.8,188.5,081007,,,A*74 $GPRMC,235959,A,4811.8299,N,00824.6675,E,003.4,141.1,081007,,,A*7A $GPRMC,235959,A,4811.8141,N,00824.6737,E,004.0,166.9,081007,,,A*70 $GPRMC,235959,A,4811.7994,N,00824.6620,E,003.9,218.7,081007,,,A*77 $GPRMC,235959,A,4811.7890,N,00824.6479,E,004.0,215.8,081007,,,A*70 $GPRMC,235959,A,4811.7830,N,00824.6365,E,002.4,238.0,081007,,,A*7E $GPRMC,235959,A,4811.7728,N,00824.6231,E,004.0,219.0,081007,,,A*7F $GPRMC,235959,A,4811.7660,N,00824.6119,E,002.5,220.8,081007,,,A*7F $GPRMC,235959,A,4811.7548,N,00824.5983,E,002.9,211.8,081007,,,A*70 $GPRMC,235959,A,4811.7419,N,00824.5938,E,001.0,172.3,081007,,,A*71 $GPRMC,235959,A,4811.7409,N,00824.5878,E,001.2,187.9,081007,,,A*73 $GPRMC,235959,A,4811.7374,N,00824.5885,E,001.7,180.3,081007,,,A*75 $GPRMC,235959,A,4811.7381,N,00824.5839,E,000.3,180.3,081007,,,A*7B $GPRMC,235959,A,4811.7405,N,00824.5817,E,000.4,180.3,081007,,,A*7B $GPRMC,235959,A,4811.7381,N,00824.5806,E,000.4,180.3,081007,,,A*74 $GPRMC,235959,A,4811.7376,N,00824.5770,E,000.8,206.9,081007,,,A*78 $GPRMC,235959,A,4811.7439,N,00824.5748,E,000.9,317.3,081007,,,A*73 $GPRMC,235959,A,4811.7484,N,00824.5793,E,001.5,006.3,081007,,,A*7F $GPRMC,235959,A,4811.7381,N,00824.6024,E,002.2,090.8,081007,,,A*71 $GPRMC,235959,A,4811.7388,N,00824.6057,E,000.2,090.8,081007,,,A*7F $GPRMC,235959,A,4811.7420,N,00824.6012,E,001.9,047.4,081007,,,A*71 $GPRMC,235959,A,4811.7439,N,00824.6029,E,000.9,116.5,081007,,,A*70 $GPRMC,235959,A,4811.7398,N,00824.6077,E,001.1,116.5,081007,,,A*7A $GPRMC,235959,A,4811.7450,N,00824.6100,E,001.9,348.0,081007,,,A*7A $GPRMC,235959,A,4811.7431,N,00824.6098,E,000.4,348.0,081007,,,A*73 $GPRMC,235959,A,4811.7414,N,00824.6110,E,001.4,348.0,081007,,,A*72 $GPRMC,235959,A,4811.7046,N,00824.6437,E,001.8,142.7,081007,,,A*70 $GPRMC,235959,A,4811.7045,N,00824.6477,E,005.0,141.0,081007,,,A*79 $GPRMC,235959,A,4811.7043,N,00824.6597,E,003.3,115.9,081007,,,A*7D $GPRMC,235959,A,4811.7003,N,00824.6816,E,004.8,099.7,081007,,,A*7E $GPRMC,235959,A,4811.6974,N,00824.6946,E,002.1,122.9,081007,,,A*73 $GPRMC,235959,A,4811.6970,N,00824.7047,E,002.2,172.1,081007,,,A*75 $GPRMC,235959,A,4811.6980,N,00824.6998,E,000.4,190.3,081007,,,A*7C $GPRMC,235959,A,4811.6946,N,00824.7077,E,000.7,151.0,081007,,,A*77 $GPRMC,235959,A,4811.6783,N,00824.7085,E,002.8,205.4,081007,,,A*76 $GPRMC,235959,A,4811.6751,N,00824.7046,E,002.0,199.6,081007,,,A*76 $GPRMC,235959,A,4811.6673,N,00824.6993,E,001.6,186.6,081007,,,A*7A $GPRMC,235959,A,4811.6623,N,00824.6831,E,002.6,227.9,081007,,,A*77 $GPRMC,235959,A,4811.6582,N,00824.6725,E,001.4,227.1,081007,,,A*7C $GPRMC,235959,A,4811.6449,N,00824.6730,E,002.3,191.7,081007,,,A*70 $GPRMC,235959,A,4811.6452,N,00824.6712,E,005.5,235.8,081007,,,A*7F $GPRMC,235959,A,4811.6347,N,00824.6580,E,001.7,219.9,081007,,,A*79 $GPRMC,235959,A,4811.6293,N,00824.6404,E,002.5,250.8,081007,,,A*71 $GPRMC,235959,A,4811.6216,N,00824.6210,E,003.5,268.6,081007,,,A*75 $GPRMC,235959,A,4811.6213,N,00824.6121,E,000.4,270.4,081007,,,A*7E $GPRMC,235959,A,4811.6125,N,00824.6007,E,003.0,240.9,081007,,,A*71 $GPRMC,235959,A,4811.6141,N,00824.5869,E,002.5,296.3,081007,,,A*75 $GPRMC,235959,A,4811.5821,N,00824.5757,E,003.1,274.2,081007,,,A*76 $GPRMC,235959,A,4811.5829,N,00824.5533,E,007.0,290.3,081007,,,A*75 $GPRMC,235959,A,4811.5759,N,00824.5392,E,002.3,241.8,081007,,,A*77 $GPRMC,235959,A,4811.5657,N,00824.5513,E,002.2,232.3,081007,,,A*78 $GPRMC,235959,A,4811.5609,N,00824.5718,E,002.6,116.3,081007,,,A*7A $GPRMC,235959,A,4811.5446,N,00824.6031,E,002.1,105.5,081007,,,A*7B $GPRMC,235959,A,4811.5429,N,00824.6084,E,000.2,105.5,081007,,,A*7B $GPRMC,235959,A,4811.5320,N,00824.6369,E,000.0,000.0,081007,,,A*76 $GPRMC,235959,A,4811.5168,N,00824.6590,E,000.0,108.3,081007,,,A*71 $GPRMC,235959,A,4811.5173,N,00824.6638,E,000.0,108.3,081007,,,A*7C $GPRMC,235959,A,4811.5159,N,00824.6673,E,000.0,108.3,081007,,,A*79 $GPRMC,235959,A,4811.4926,N,00824.6749,E,001.1,108.3,081007,,,A*71 $GPRMC,235959,A,4811.4778,N,00824.6730,E,002.0,334.7,081007,,,A*74 $GPRMC,235959,A,4811.4862,N,00824.6751,E,000.0,334.7,081007,,,A*71 $GPRMC,235959,A,4811.4959,N,00824.6704,E,000.7,131.3,081007,,,A*7D $GPRMC,235959,A,4811.4927,N,00824.6742,E,001.0,131.3,081007,,,A*76 $GPRMC,235959,A,4811.4926,N,00824.6746,E,000.9,131.3,081007,,,A*7B $GPRMC,235959,A,4811.4925,N,00824.6763,E,000.8,131.3,081007,,,A*7A $GPRMC,235959,A,4811.4889,N,00824.6796,E,003.4,142.6,081007,,,A*78 $GPRMC,235959,A,4811.4917,N,00824.6793,E,000.4,132.5,081007,,,A*7A $GPRMC,235959,A,4811.4914,N,00824.6819,E,000.2,132.5,081007,,,A*70 $GPRMC,235959,A,4811.4879,N,00824.6862,E,000.2,129.8,081007,,,A*75 $GPRMC,235959,A,4811.4879,N,00824.6864,E,000.4,129.8,081007,,,A*74 $GPRMC,235959,A,4811.4970,N,00824.6815,E,000.4,043.0,081007,,,A*79 $GPRMC,235959,A,4811.4932,N,00824.6799,E,001.7,130.6,081007,,,A*79 $GPRMC,235959,A,4811.4788,N,00824.6794,E,003.6,179.2,081007,,,A*75 $GPRMC,235959,A,4811.4831,N,00824.6671,E,003.5,164.1,081007,,,A*7F $GPRMC,235959,A,4811.4652,N,00824.6787,E,000.4,148.1,081007,,,A*76 $GPRMC,235959,A,4811.4602,N,00824.6735,E,002.9,161.3,081007,,,A*7E $GPRMC,235959,A,4811.4508,N,00824.6655,E,003.0,203.7,081007,,,A*7F $GPRMC,235959,A,4811.4547,N,00824.6426,E,002.5,298.2,081007,,,A*70 $GPRMC,235959,A,4811.4574,N,00824.6244,E,004.8,299.6,081007,,,A*7A $GPRMC,235959,A,4811.4599,N,00824.6019,E,002.6,224.9,081007,,,A*79 $GPRMC,235959,A,4811.4524,N,00824.5910,E,003.7,194.3,081007,,,A*7A $GPRMC,235959,A,4811.4472,N,00824.5750,E,002.5,240.8,081007,,,A*71 $GPRMC,235959,A,4811.4419,N,00824.5575,E,003.0,235.4,081007,,,A*75 $GPRMC,235959,A,4811.4388,N,00824.5393,E,003.0,224.7,081007,,,A*75 $GPRMC,235959,A,4811.4324,N,00824.5233,E,003.5,163.9,081007,,,A*71 $GPRMC,235959,A,4811.4214,N,00824.5196,E,002.7,181.4,081007,,,A*7D $GPRMC,235959,A,4811.4054,N,00824.5237,E,002.9,184.5,081007,,,A*79 $GPRMC,235959,A,4811.3994,N,00824.5183,E,001.9,213.0,081007,,,A*7A $GPRMC,235959,A,4811.3920,N,00824.5157,E,002.5,205.5,081007,,,A*74 $GPRMC,235959,A,4811.3792,N,00824.5220,E,000.2,147.3,081007,,,A*76 $GPRMC,235959,A,4811.3810,N,00824.5200,E,000.3,142.4,081007,,,A*70 $GPRMC,235959,A,4811.3751,N,00824.5235,E,003.5,172.8,081007,,,A*70 $GPRMC,235959,A,4811.3630,N,00824.5243,E,003.1,168.6,081007,,,A*73 $GPRMC,235959,A,4811.3474,N,00824.5242,E,003.2,177.3,081007,,,A*78 $GPRMC,235959,A,4811.3392,N,00824.5247,E,002.1,182.0,081007,,,A*7D $GPRMC,235959,A,4811.3030,N,00824.5453,E,004.9,163.8,081007,,,A*7A $GPRMC,235959,A,4811.2896,N,00824.5537,E,005.4,325.8,081007,,,A*72 $GPRMC,235959,A,4811.2857,N,00824.5528,E,000.0,325.8,081007,,,A*76 $GPRMC,235959,A,4811.2590,N,00824.5780,E,005.8,154.8,081007,,,A*7B $GPRMC,235959,A,4811.2496,N,00824.5775,E,003.4,162.1,081007,,,A*74 $GPRMC,235959,A,4811.2341,N,00824.5838,E,003.3,172.9,081007,,,A*70 $GPRMC,235959,A,4811.2222,N,00824.5847,E,002.8,168.9,081007,,,A*7B $GPRMC,235959,A,4811.2155,N,00824.5864,E,003.7,161.8,081007,,,A*7F $GPRMC,235959,A,4811.2020,N,00824.5874,E,005.3,164.3,081007,,,A*75 $GPRMC,235959,A,4811.1980,N,00824.5818,E,003.2,169.6,081007,,,A*71 $GPRMC,235959,A,4811.1862,N,00824.5831,E,003.9,165.6,081007,,,A*76 $GPRMC,235959,A,4811.1651,N,00824.5885,E,003.9,154.2,081007,,,A*74 $GPRMC,235959,A,4811.1533,N,00824.5866,E,002.0,197.5,081007,,,A*7B $GPRMC,235959,A,4811.1470,N,00824.5836,E,002.4,177.8,081007,,,A*7F $GPRMC,235959,A,4811.1311,N,00824.5862,E,007.5,153.6,081007,,,A*7E $GPRMC,235959,A,4811.1226,N,00824.5797,E,002.1,308.7,081007,,,A*74 $GPRMC,235959,A,4811.1098,N,00824.5886,E,003.6,292.9,081007,,,A*73 $GPRMC,235959,A,4811.1104,N,00824.5720,E,003.2,252.9,081007,,,A*7C $GPRMC,235959,A,4811.1153,N,00824.5649,E,001.9,252.9,081007,,,A*7B $GPRMC,235959,A,4811.0627,N,00824.5846,E,002.3,000.0,081007,,,A*78 $GPRMC,235959,A,4811.0505,N,00824.6144,E,002.5,079.0,081007,,,A*72 $GPRMC,235959,A,4811.0335,N,00824.6469,E,003.3,009.1,081007,,,A*78 $GPRMC,235959,A,4811.0408,N,00824.6697,E,002.8,054.3,081007,,,A*72 $GPRMC,235959,A,4811.0589,N,00824.6940,E,001.1,013.2,081007,,,A*75